9°C Temp
1°C Dewpoint
58% Humidity
Temperature
26 KM/H
16 MPH
14 KTS
190°
Due South

Wind Speed
Mostly Clear
Conditions
Pressure 1022 (hPa) - 30.18 (in)
Visibility 6.2 (mi) - 10.0 (km)

Current Conditions
LTBA
Location Atatürk International 6km (3.2mi)
Metar :LTBA 130950Z 19014KT CAVOK 09/01 Q1022 NOSIG
Thu 13th December 12:50 pm

Airport
  Metar Aviation API Data Provided by https://www.checkwx.com/ CSS/SVG/PHP scripts by weather34.com © 2015-2018